sensor_id;sensor_type;location;lat;lon;timestamp;P1;durP1;ratioP1;P2;durP2;ratioP2
239;SDS011;104;53.590;10.004;2022-12-18T00:01:46;97.90;;;30.60;;
239;SDS011;104;53.590;10.004;2022-12-18T00:04:15;97.90;;;27.30;;
239;SDS011;104;53.590;10.004;2022-12-18T00:06:46;82.20;;;26.80;;
239;SDS011;104;53.590;10.004;2022-12-18T00:09:13;103.40;;;27.67;;
239;SDS011;104;53.590;10.004;2022-12-18T00:11:46;109.33;;;30.07;;
239;SDS011;104;53.590;10.004;2022-12-18T00:14:15;97.50;;;27.80;;
239;SDS011;104;53.590;10.004;2022-12-18T00:16:43;88.13;;;25.97;;
239;SDS011;104;53.590;10.004;2022-12-18T00:19:12;94.80;;;28.47;;
239;SDS011;104;53.590;10.004;2022-12-18T00:21:39;85.07;;;25.73;;
239;SDS011;104;53.590;10.004;2022-12-18T00:24:07;92.47;;;23.90;;
239;SDS011;104;53.590;10.004;2022-12-18T00:26:36;92.80;;;25.03;;
239;SDS011;104;53.590;10.004;2022-12-18T00:29:04;85.50;;;21.93;;
239;SDS011;104;53.590;10.004;2022-12-18T00:31:36;82.43;;;23.87;;
239;SDS011;104;53.590;10.004;2022-12-18T00:34:04;98.70;;;29.93;;
239;SDS011;104;53.590;10.004;2022-12-18T00:36:31;100.37;;;26.57;;
239;SDS011;104;53.590;10.004;2022-12-18T00:39:00;82.23;;;24.80;;
239;SDS011;104;53.590;10.004;2022-12-18T00:41:28;67.40;;;22.53;;
239;SDS011;104;53.590;10.004;2022-12-18T00:44:13;85.63;;;25.67;;
239;SDS011;104;53.590;10.004;2022-12-18T00:46:46;84.23;;;24.53;;
239;SDS011;104;53.590;10.004;2022-12-18T00:49:15;84.57;;;25.10;;
239;SDS011;104;53.590;10.004;2022-12-18T00:51:44;84.67;;;25.30;;
239;SDS011;104;53.590;10.004;2022-12-18T00:54:12;101.53;;;27.20;;
239;SDS011;104;53.590;10.004;2022-12-18T00:56:41;85.97;;;24.53;;
239;SDS011;104;53.590;10.004;2022-12-18T00:59:08;85.50;;;27.60;;
239;SDS011;104;53.590;10.004;2022-12-18T01:01:35;89.20;;;28.20;;
239;SDS011;104;53.590;10.004;2022-12-18T01:04:04;86.30;;;25.87;;
239;SDS011;104;53.590;10.004;2022-12-18T01:06:34;86.67;;;25.23;;
239;SDS011;104;53.590;10.004;2022-12-18T01:09:02;91.63;;;26.63;;
239;SDS011;104;53.590;10.004;2022-12-18T01:11:29;95.83;;;26.67;;
239;SDS011;104;53.590;10.004;2022-12-18T01:13:57;93.37;;;25.10;;
239;SDS011;104;53.590;10.004;2022-12-18T01:16:25;80.60;;;24.70;;
239;SDS011;104;53.590;10.004;2022-12-18T01:18:53;78.23;;;22.60;;
239;SDS011;104;53.590;10.004;2022-12-18T01:21:23;82.97;;;23.67;;
239;SDS011;104;53.590;10.004;2022-12-18T01:23:51;79.13;;;23.47;;
239;SDS011;104;53.590;10.004;2022-12-18T01:26:19;94.77;;;25.67;;
239;SDS011;104;53.590;10.004;2022-12-18T01:28:46;71.70;;;23.57;;
239;SDS011;104;53.590;10.004;2022-12-18T01:31:14;75.20;;;23.57;;
239;SDS011;104;53.590;10.004;2022-12-18T01:33:43;72.77;;;23.33;;
239;SDS011;104;53.590;10.004;2022-12-18T01:36:14;79.50;;;24.80;;
239;SDS011;104;53.590;10.004;2022-12-18T01:38:43;77.10;;;23.90;;
239;SDS011;104;53.590;10.004;2022-12-18T01:41:10;66.30;;;21.43;;
239;SDS011;104;53.590;10.004;2022-12-18T01:43:41;74.50;;;21.53;;
239;SDS011;104;53.590;10.004;2022-12-18T01:46:13;67.77;;;22.13;;
239;SDS011;104;53.590;10.004;2022-12-18T01:48:41;62.47;;;20.63;;
239;SDS011;104;53.590;10.004;2022-12-18T01:51:09;70.67;;;21.90;;
239;SDS011;104;53.590;10.004;2022-12-18T01:53:37;68.93;;;21.20;;
239;SDS011;104;53.590;10.004;2022-12-18T01:56:08;75.67;;;23.43;;
239;SDS011;104;53.590;10.004;2022-12-18T01:58:41;81.83;;;23.33;;
239;SDS011;104;53.590;10.004;2022-12-18T02:01:14;71.27;;;23.27;;
239;SDS011;104;53.590;10.004;2022-12-18T02:03:42;63.70;;;20.90;;
239;SDS011;104;53.590;10.004;2022-12-18T02:06:11;69.13;;;21.63;;
239;SDS011;104;53.590;10.004;2022-12-18T02:08:45;74.43;;;23.03;;
239;SDS011;104;53.590;10.004;2022-12-18T02:11:30;63.10;;;21.17;;
239;SDS011;104;53.590;10.004;2022-12-18T02:14:08;73.73;;;22.33;;
239;SDS011;104;53.590;10.004;2022-12-18T02:16:44;67.23;;;22.80;;
239;SDS011;104;53.590;10.004;2022-12-18T02:19:20;79.53;;;23.50;;
239;SDS011;104;53.590;10.004;2022-12-18T02:22:21;83.13;;;24.77;;
239;SDS011;104;53.590;10.004;2022-12-18T02:24:57;78.93;;;26.17;;
239;SDS011;104;53.590;10.004;2022-12-18T02:27:33;91.93;;;25.70;;
239;SDS011;104;53.590;10.004;2022-12-18T02:30:03;85.93;;;23.30;;
239;SDS011;104;53.590;10.004;2022-12-18T02:32:33;81.40;;;25.20;;
239;SDS011;104;53.590;10.004;2022-12-18T02:35:04;81.77;;;24.30;;
239;SDS011;104;53.590;10.004;2022-12-18T02:37:34;87.63;;;23.50;;
239;SDS011;104;53.590;10.004;2022-12-18T02:40:05;71.40;;;23.60;;
239;SDS011;104;53.590;10.004;2022-12-18T02:42:35;77.27;;;22.77;;
239;SDS011;104;53.590;10.004;2022-12-18T02:45:03;90.10;;;25.07;;
239;SDS011;104;53.590;10.004;2022-12-18T02:47:31;81.93;;;24.13;;
239;SDS011;104;53.590;10.004;2022-12-18T02:50:05;69.20;;;22.90;;
239;SDS011;104;53.590;10.004;2022-12-18T02:52:41;67.00;;;20.73;;
239;SDS011;104;53.590;10.004;2022-12-18T02:55:18;65.03;;;20.40;;
239;SDS011;104;53.590;10.004;2022-12-18T02:57:56;58.90;;;19.07;;
239;SDS011;104;53.590;10.004;2022-12-18T03:00:30;72.63;;;21.00;;
239;SDS011;104;53.590;10.004;2022-12-18T03:03:04;63.17;;;21.97;;
239;SDS011;104;53.590;10.004;2022-12-18T03:05:34;58.50;;;19.20;;
239;SDS011;104;53.590;10.004;2022-12-18T03:08:06;69.90;;;19.63;;
239;SDS011;104;53.590;10.004;2022-12-18T03:10:38;57.07;;;19.07;;
239;SDS011;104;53.590;10.004;2022-12-18T03:13:12;54.77;;;18.90;;
239;SDS011;104;53.590;10.004;2022-12-18T03:15:44;56.50;;;18.93;;
239;SDS011;104;53.590;10.004;2022-12-18T03:18:15;60.07;;;19.77;;
239;SDS011;104;53.590;10.004;2022-12-18T03:20:45;65.40;;;20.50;;
239;SDS011;104;53.590;10.004;2022-12-18T03:23:16;59.63;;;18.50;;
239;SDS011;104;53.590;10.004;2022-12-18T03:25:52;61.50;;;20.60;;
239;SDS011;104;53.590;10.004;2022-12-18T03:28:25;69.37;;;21.57;;
239;SDS011;104;53.590;10.004;2022-12-18T03:30:56;63.30;;;20.50;;
239;SDS011;104;53.590;10.004;2022-12-18T03:33:26;61.67;;;19.70;;
239;SDS011;104;53.590;10.004;2022-12-18T03:35:55;57.77;;;19.50;;
239;SDS011;104;53.590;10.004;2022-12-18T03:38:22;58.07;;;19.00;;
239;SDS011;104;53.590;10.004;2022-12-18T03:40:52;69.50;;;21.37;;
239;SDS011;104;53.590;10.004;2022-12-18T03:43:30;57.10;;;19.67;;
239;SDS011;104;53.590;10.004;2022-12-18T03:46:05;64.30;;;21.20;;
239;SDS011;104;53.590;10.004;2022-12-18T03:48:38;57.40;;;19.90;;
239;SDS011;104;53.590;10.004;2022-12-18T03:51:10;62.20;;;19.43;;
239;SDS011;104;53.590;10.004;2022-12-18T03:53:45;64.63;;;19.53;;
239;SDS011;104;53.590;10.004;2022-12-18T03:56:18;67.20;;;19.17;;
239;SDS011;104;53.590;10.004;2022-12-18T03:58:48;67.20;;;20.60;;
239;SDS011;104;53.590;10.004;2022-12-18T04:01:16;60.27;;;19.27;;
239;SDS011;104;53.590;10.004;2022-12-18T04:03:45;60.80;;;19.70;;
239;SDS011;104;53.590;10.004;2022-12-18T04:06:14;55.50;;;18.30;;
239;SDS011;104;53.590;10.004;2022-12-18T04:08:45;63.67;;;19.10;;
239;SDS011;104;53.590;10.004;2022-12-18T04:11:13;57.80;;;18.83;;
239;SDS011;104;53.590;10.004;2022-12-18T04:13:41;61.50;;;18.03;;
239;SDS011;104;53.590;10.004;2022-12-18T04:16:10;51.00;;;18.17;;
239;SDS011;104;53.590;10.004;2022-12-18T04:18:37;55.17;;;19.67;;
239;SDS011;104;53.590;10.004;2022-12-18T04:21:04;44.43;;;17.90;;
239;SDS011;104;53.590;10.004;2022-12-18T04:23:31;58.90;;;18.37;;
239;SDS011;104;53.590;10.004;2022-12-18T04:25:58;64.20;;;19.73;;
239;SDS011;104;53.590;10.004;2022-12-18T04:28:25;54.43;;;19.57;;
239;SDS011;104;53.590;10.004;2022-12-18T04:30:53;53.27;;;19.47;;
239;SDS011;104;53.590;10.004;2022-12-18T04:33:21;58.00;;;20.27;;
239;SDS011;104;53.590;10.004;2022-12-18T04:35:48;57.00;;;20.77;;
239;SDS011;104;53.590;10.004;2022-12-18T04:38:15;60.73;;;20.10;;
239;SDS011;104;53.590;10.004;2022-12-18T04:40:43;59.53;;;19.83;;
239;SDS011;104;53.590;10.004;2022-12-18T04:43:10;59.83;;;19.33;;
239;SDS011;104;53.590;10.004;2022-12-18T04:45:37;56.43;;;19.23;;
239;SDS011;104;53.590;10.004;2022-12-18T04:48:05;61.90;;;20.20;;
239;SDS011;104;53.590;10.004;2022-12-18T04:50:33;65.63;;;21.03;;
239;SDS011;104;53.590;10.004;2022-12-18T04:53:00;51.90;;;16.37;;
239;SDS011;104;53.590;10.004;2022-12-18T04:55:27;54.03;;;16.50;;
239;SDS011;104;53.590;10.004;2022-12-18T04:57:55;57.00;;;17.47;;
239;SDS011;104;53.590;10.004;2022-12-18T05:00:22;60.73;;;19.60;;
239;SDS011;104;53.590;10.004;2022-12-18T05:02:49;58.40;;;17.53;;
239;SDS011;104;53.590;10.004;2022-12-18T05:05:16;47.57;;;17.10;;
239;SDS011;104;53.590;10.004;2022-12-18T05:07:44;52.50;;;17.43;;
239;SDS011;104;53.590;10.004;2022-12-18T05:10:11;43.80;;;16.87;;
239;SDS011;104;53.590;10.004;2022-12-18T05:12:40;46.00;;;15.50;;
239;SDS011;104;53.590;10.004;2022-12-18T05:15:21;56.43;;;17.90;;
239;SDS011;104;53.590;10.004;2022-12-18T05:17:48;54.70;;;18.80;;
239;SDS011;104;53.590;10.004;2022-12-18T05:20:15;53.13;;;17.50;;
239;SDS011;104;53.590;10.004;2022-12-18T05:22:44;58.77;;;18.30;;
239;SDS011;104;53.590;10.004;2022-12-18T05:25:11;56.93;;;19.13;;
239;SDS011;104;53.590;10.004;2022-12-18T05:27:39;54.60;;;18.07;;
239;SDS011;104;53.590;10.004;2022-12-18T05:30:06;58.70;;;19.30;;
239;SDS011;104;53.590;10.004;2022-12-18T05:32:34;54.23;;;17.40;;
239;SDS011;104;53.590;10.004;2022-12-18T05:35:01;51.20;;;17.50;;
239;SDS011;104;53.590;10.004;2022-12-18T05:37:29;58.03;;;19.57;;
239;SDS011;104;53.590;10.004;2022-12-18T05:39:57;62.60;;;19.53;;
239;SDS011;104;53.590;10.004;2022-12-18T05:42:24;72.00;;;21.07;;
239;SDS011;104;53.590;10.004;2022-12-18T05:44:51;63.30;;;18.90;;
239;SDS011;104;53.590;10.004;2022-12-18T05:47:18;64.37;;;19.63;;
239;SDS011;104;53.590;10.004;2022-12-18T05:49:48;55.03;;;19.07;;
239;SDS011;104;53.590;10.004;2022-12-18T05:52:16;49.63;;;17.00;;
239;SDS011;104;53.590;10.004;2022-12-18T05:54:42;50.47;;;17.20;;
239;SDS011;104;53.590;10.004;2022-12-18T05:57:11;55.37;;;17.43;;
239;SDS011;104;53.590;10.004;2022-12-18T05:59:38;61.50;;;18.50;;
239;SDS011;104;53.590;10.004;2022-12-18T06:02:05;55.37;;;17.97;;
239;SDS011;104;53.590;10.004;2022-12-18T06:04:33;49.80;;;18.10;;
239;SDS011;104;53.590;10.004;2022-12-18T06:07:00;55.40;;;18.27;;
239;SDS011;104;53.590;10.004;2022-12-18T06:09:28;52.30;;;17.10;;
239;SDS011;104;53.590;10.004;2022-12-18T06:11:55;53.77;;;17.67;;
239;SDS011;104;53.590;10.004;2022-12-18T06:14:23;58.77;;;18.13;;
239;SDS011;104;53.590;10.004;2022-12-18T06:16:51;61.60;;;19.47;;
239;SDS011;104;53.590;10.004;2022-12-18T06:19:18;59.40;;;17.27;;
239;SDS011;104;53.590;10.004;2022-12-18T06:21:45;54.70;;;17.70;;
239;SDS011;104;53.590;10.004;2022-12-18T06:24:12;51.73;;;17.83;;
239;SDS011;104;53.590;10.004;2022-12-18T06:26:39;58.53;;;19.30;;
239;SDS011;104;53.590;10.004;2022-12-18T06:29:06;65.50;;;18.27;;
239;SDS011;104;53.590;10.004;2022-12-18T06:31:35;61.13;;;18.27;;
239;SDS011;104;53.590;10.004;2022-12-18T06:34:02;64.37;;;17.97;;
239;SDS011;104;53.590;10.004;2022-12-18T06:36:30;58.57;;;19.20;;
239;SDS011;104;53.590;10.004;2022-12-18T06:38:57;63.67;;;19.00;;
239;SDS011;104;53.590;10.004;2022-12-18T06:41:24;54.60;;;17.73;;
239;SDS011;104;53.590;10.004;2022-12-18T06:43:52;55.87;;;15.90;;
239;SDS011;104;53.590;10.004;2022-12-18T06:46:19;62.80;;;18.20;;
239;SDS011;104;53.590;10.004;2022-12-18T06:48:48;55.97;;;18.23;;
239;SDS011;104;53.590;10.004;2022-12-18T06:51:17;65.70;;;19.17;;
239;SDS011;104;53.590;10.004;2022-12-18T06:53:44;63.37;;;18.10;;
239;SDS011;104;53.590;10.004;2022-12-18T06:56:11;62.50;;;17.97;;
239;SDS011;104;53.590;10.004;2022-12-18T06:58:39;63.37;;;19.13;;
239;SDS011;104;53.590;10.004;2022-12-18T07:01:07;62.70;;;19.23;;
239;SDS011;104;53.590;10.004;2022-12-18T07:03:36;61.97;;;18.43;;
239;SDS011;104;53.590;10.004;2022-12-18T07:06:06;61.13;;;18.87;;
239;SDS011;104;53.590;10.004;2022-12-18T07:08:33;66.03;;;18.60;;
239;SDS011;104;53.590;10.004;2022-12-18T07:11:02;67.90;;;20.17;;
239;SDS011;104;53.590;10.004;2022-12-18T07:13:30;64.53;;;19.77;;
239;SDS011;104;53.590;10.004;2022-12-18T07:16:03;65.17;;;19.43;;
239;SDS011;104;53.590;10.004;2022-12-18T07:18:31;63.90;;;20.33;;
239;SDS011;104;53.590;10.004;2022-12-18T07:21:02;67.77;;;20.10;;
239;SDS011;104;53.590;10.004;2022-12-18T07:23:31;66.67;;;19.03;;
239;SDS011;104;53.590;10.004;2022-12-18T07:26:03;66.20;;;20.27;;
239;SDS011;104;53.590;10.004;2022-12-18T07:28:33;76.40;;;20.43;;
239;SDS011;104;53.590;10.004;2022-12-18T07:31:05;58.13;;;19.40;;
239;SDS011;104;53.590;10.004;2022-12-18T07:33:37;70.70;;;20.47;;
239;SDS011;104;53.590;10.004;2022-12-18T07:36:05;71.10;;;20.20;;
239;SDS011;104;53.590;10.004;2022-12-18T07:38:35;69.77;;;21.57;;
239;SDS011;104;53.590;10.004;2022-12-18T07:41:02;71.07;;;19.70;;
239;SDS011;104;53.590;10.004;2022-12-18T07:43:31;66.53;;;21.07;;
239;SDS011;104;53.590;10.004;2022-12-18T07:45:59;77.70;;;20.90;;
239;SDS011;104;53.590;10.004;2022-12-18T07:48:27;70.60;;;22.30;;
239;SDS011;104;53.590;10.004;2022-12-18T07:50:57;77.97;;;22.03;;
239;SDS011;104;53.590;10.004;2022-12-18T07:53:25;68.57;;;21.50;;
239;SDS011;104;53.590;10.004;2022-12-18T07:55:56;77.30;;;24.20;;
239;SDS011;104;53.590;10.004;2022-12-18T07:58:24;78.63;;;20.17;;
239;SDS011;104;53.590;10.004;2022-12-18T08:00:51;67.13;;;22.20;;
239;SDS011;104;53.590;10.004;2022-12-18T08:03:19;71.70;;;21.20;;
239;SDS011;104;53.590;10.004;2022-12-18T08:05:47;64.73;;;19.37;;
239;SDS011;104;53.590;10.004;2022-12-18T08:08:14;76.20;;;21.60;;
239;SDS011;104;53.590;10.004;2022-12-18T08:10:41;64.13;;;20.37;;
239;SDS011;104;53.590;10.004;2022-12-18T08:13:10;77.10;;;21.53;;
239;SDS011;104;53.590;10.004;2022-12-18T08:15:38;85.77;;;21.53;;
239;SDS011;104;53.590;10.004;2022-12-18T08:18:05;71.17;;;20.70;;
239;SDS011;104;53.590;10.004;2022-12-18T08:20:33;92.33;;;23.80;;
239;SDS011;104;53.590;10.004;2022-12-18T08:23:00;77.87;;;21.67;;
239;SDS011;104;53.590;10.004;2022-12-18T08:25:28;65.27;;;20.20;;
239;SDS011;104;53.590;10.004;2022-12-18T08:27:56;65.17;;;21.63;;
239;SDS011;104;53.590;10.004;2022-12-18T08:30:31;56.73;;;19.00;;
239;SDS011;104;53.590;10.004;2022-12-18T08:32:58;62.80;;;19.50;;
239;SDS011;104;53.590;10.004;2022-12-18T08:35:26;48.83;;;15.27;;
239;SDS011;104;53.590;10.004;2022-12-18T08:37:53;51.47;;;18.00;;
239;SDS011;104;53.590;10.004;2022-12-18T08:40:20;45.53;;;15.57;;
239;SDS011;104;53.590;10.004;2022-12-18T08:42:48;51.13;;;16.70;;
239;SDS011;104;53.590;10.004;2022-12-18T08:45:34;53.13;;;17.30;;
239;SDS011;104;53.590;10.004;2022-12-18T08:48:02;50.93;;;17.27;;
239;SDS011;104;53.590;10.004;2022-12-18T08:50:29;49.90;;;18.17;;
239;SDS011;104;53.590;10.004;2022-12-18T08:52:56;46.63;;;16.83;;
239;SDS011;104;53.590;10.004;2022-12-18T08:55:23;58.23;;;18.80;;
239;SDS011;104;53.590;10.004;2022-12-18T08:57:51;56.40;;;18.83;;
239;SDS011;104;53.590;10.004;2022-12-18T09:00:18;55.73;;;20.20;;
239;SDS011;104;53.590;10.004;2022-12-18T09:02:47;50.93;;;18.87;;
239;SDS011;104;53.590;10.004;2022-12-18T09:05:15;65.87;;;20.40;;
239;SDS011;104;53.590;10.004;2022-12-18T09:07:42;59.77;;;20.03;;
239;SDS011;104;53.590;10.004;2022-12-18T09:10:10;64.03;;;18.70;;
239;SDS011;104;53.590;10.004;2022-12-18T09:12:38;57.57;;;19.07;;
239;SDS011;104;53.590;10.004;2022-12-18T09:15:05;55.77;;;18.87;;
239;SDS011;104;53.590;10.004;2022-12-18T09:17:33;65.83;;;20.30;;
239;SDS011;104;53.590;10.004;2022-12-18T09:20:02;60.30;;;19.83;;
239;SDS011;104;53.590;10.004;2022-12-18T09:22:30;53.03;;;19.27;;
239;SDS011;104;53.590;10.004;2022-12-18T09:24:57;59.03;;;19.70;;
239;SDS011;104;53.590;10.004;2022-12-18T09:27:25;67.57;;;20.90;;
239;SDS011;104;53.590;10.004;2022-12-18T09:29:52;56.57;;;19.40;;
239;SDS011;104;53.590;10.004;2022-12-18T09:32:20;64.13;;;20.07;;
239;SDS011;104;53.590;10.004;2022-12-18T09:34:48;62.43;;;20.10;;
239;SDS011;104;53.590;10.004;2022-12-18T09:37:17;61.53;;;20.10;;
239;SDS011;104;53.590;10.004;2022-12-18T09:39:44;52.10;;;19.00;;
239;SDS011;104;53.590;10.004;2022-12-18T09:42:16;57.30;;;19.77;;
239;SDS011;104;53.590;10.004;2022-12-18T09:44:46;77.60;;;20.00;;
239;SDS011;104;53.590;10.004;2022-12-18T09:47:17;58.90;;;18.83;;
239;SDS011;104;53.590;10.004;2022-12-18T09:49:46;58.80;;;18.87;;
239;SDS011;104;53.590;10.004;2022-12-18T09:52:17;59.90;;;19.90;;
239;SDS011;104;53.590;10.004;2022-12-18T09:54:50;62.53;;;19.90;;
239;SDS011;104;53.590;10.004;2022-12-18T09:57:22;62.57;;;20.00;;
239;SDS011;104;53.590;10.004;2022-12-18T09:59:51;64.17;;;20.67;;
239;SDS011;104;53.590;10.004;2022-12-18T10:02:21;64.57;;;19.70;;
239;SDS011;104;53.590;10.004;2022-12-18T10:04:53;68.47;;;21.17;;
239;SDS011;104;53.590;10.004;2022-12-18T10:07:37;71.30;;;21.80;;
239;SDS011;104;53.590;10.004;2022-12-18T10:10:07;73.77;;;22.00;;
239;SDS011;104;53.590;10.004;2022-12-18T10:12:38;66.53;;;21.80;;
239;SDS011;104;53.590;10.004;2022-12-18T10:15:15;67.83;;;22.27;;
239;SDS011;104;53.590;10.004;2022-12-18T10:17:48;84.57;;;21.97;;
239;SDS011;104;53.590;10.004;2022-12-18T10:20:20;67.23;;;22.10;;
239;SDS011;104;53.590;10.004;2022-12-18T10:22:55;64.57;;;22.00;;
239;SDS011;104;53.590;10.004;2022-12-18T10:25:25;85.57;;;27.60;;
239;SDS011;104;53.590;10.004;2022-12-18T10:27:56;63.93;;;21.20;;
239;SDS011;104;53.590;10.004;2022-12-18T10:30:25;68.63;;;21.87;;
239;SDS011;104;53.590;10.004;2022-12-18T10:32:53;62.40;;;19.97;;
239;SDS011;104;53.590;10.004;2022-12-18T10:35:22;59.90;;;20.20;;
239;SDS011;104;53.590;10.004;2022-12-18T10:38:04;64.20;;;19.30;;
239;SDS011;104;53.590;10.004;2022-12-18T10:40:33;46.57;;;16.50;;
239;SDS011;104;53.590;10.004;2022-12-18T10:43:15;57.83;;;18.40;;
239;SDS011;104;53.590;10.004;2022-12-18T10:45:57;56.10;;;18.40;;
239;SDS011;104;53.590;10.004;2022-12-18T10:48:26;58.40;;;18.43;;
239;SDS011;104;53.590;10.004;2022-12-18T10:50:54;58.00;;;19.80;;
239;SDS011;104;53.590;10.004;2022-12-18T10:53:23;60.17;;;19.00;;
239;SDS011;104;53.590;10.004;2022-12-18T10:55:52;56.23;;;18.70;;
239;SDS011;104;53.590;10.004;2022-12-18T10:58:22;61.67;;;19.63;;
239;SDS011;104;53.590;10.004;2022-12-18T11:01:04;57.90;;;20.27;;
239;SDS011;104;53.590;10.004;2022-12-18T11:03:32;67.70;;;19.37;;
239;SDS011;104;53.590;10.004;2022-12-18T11:06:02;62.57;;;19.93;;
239;SDS011;104;53.590;10.004;2022-12-18T11:11:19;58.80;;;18.50;;
239;SDS011;104;53.590;10.004;2022-12-18T11:13:57;62.90;;;21.50;;
239;SDS011;104;53.590;10.004;2022-12-18T11:16:42;82.30;;;25.43;;
239;SDS011;104;53.590;10.004;2022-12-18T11:19:17;62.33;;;21.57;;
239;SDS011;104;53.590;10.004;2022-12-18T11:21:49;71.77;;;21.70;;
239;SDS011;104;53.590;10.004;2022-12-18T11:24:19;72.53;;;21.47;;
239;SDS011;104;53.590;10.004;2022-12-18T11:26:52;59.93;;;20.23;;
239;SDS011;104;53.590;10.004;2022-12-18T11:29:22;62.73;;;20.60;;
239;SDS011;104;53.590;10.004;2022-12-18T11:31:57;63.83;;;20.73;;
239;SDS011;104;53.590;10.004;2022-12-18T11:34:39;64.30;;;21.07;;
239;SDS011;104;53.590;10.004;2022-12-18T11:37:12;68.87;;;21.43;;
239;SDS011;104;53.590;10.004;2022-12-18T11:39:44;65.20;;;23.00;;
239;SDS011;104;53.590;10.004;2022-12-18T11:42:20;86.47;;;24.50;;
239;SDS011;104;53.590;10.004;2022-12-18T11:44:50;65.17;;;22.60;;
239;SDS011;104;53.590;10.004;2022-12-18T11:47:20;54.33;;;19.83;;
239;SDS011;104;53.590;10.004;2022-12-18T11:49:50;70.63;;;23.00;;
239;SDS011;104;53.590;10.004;2022-12-18T11:52:18;67.70;;;23.10;;
239;SDS011;104;53.590;10.004;2022-12-18T11:54:46;72.60;;;23.37;;
239;SDS011;104;53.590;10.004;2022-12-18T11:57:15;65.30;;;22.27;;
239;SDS011;104;53.590;10.004;2022-12-18T11:59:47;61.03;;;20.53;;
239;SDS011;104;53.590;10.004;2022-12-18T12:02:24;57.17;;;18.70;;
239;SDS011;104;53.590;10.004;2022-12-18T12:05:11;69.07;;;23.07;;
239;SDS011;104;53.590;10.004;2022-12-18T12:07:50;53.80;;;18.57;;
239;SDS011;104;53.590;10.004;2022-12-18T12:10:28;52.63;;;20.23;;
239;SDS011;104;53.590;10.004;2022-12-18T12:13:10;51.90;;;19.10;;
239;SDS011;104;53.590;10.004;2022-12-18T12:15:54;69.27;;;20.70;;
239;SDS011;104;53.590;10.004;2022-12-18T12:18:28;64.83;;;21.73;;
239;SDS011;104;53.590;10.004;2022-12-18T12:21:09;68.10;;;22.13;;
239;SDS011;104;53.590;10.004;2022-12-18T12:23:41;78.60;;;24.53;;
239;SDS011;104;53.590;10.004;2022-12-18T12:26:11;67.03;;;22.70;;
239;SDS011;104;53.590;10.004;2022-12-18T12:28:53;67.03;;;23.17;;
239;SDS011;104;53.590;10.004;2022-12-18T12:31:38;49.93;;;19.17;;
239;SDS011;104;53.590;10.004;2022-12-18T12:34:13;55.30;;;19.07;;
239;SDS011;104;53.590;10.004;2022-12-18T12:36:48;58.47;;;21.33;;
239;SDS011;104;53.590;10.004;2022-12-18T12:39:19;67.50;;;21.80;;
239;SDS011;104;53.590;10.004;2022-12-18T12:41:47;56.20;;;19.17;;
239;SDS011;104;53.590;10.004;2022-12-18T12:44:33;51.23;;;19.23;;
239;SDS011;104;53.590;10.004;2022-12-18T12:47:10;48.17;;;18.07;;
239;SDS011;104;53.590;10.004;2022-12-18T12:49:38;61.83;;;18.80;;
239;SDS011;104;53.590;10.004;2022-12-18T12:52:14;53.80;;;19.00;;
239;SDS011;104;53.590;10.004;2022-12-18T12:54:42;50.87;;;18.67;;
239;SDS011;104;53.590;10.004;2022-12-18T12:57:11;54.93;;;19.10;;
239;SDS011;104;53.590;10.004;2022-12-18T12:59:44;52.77;;;19.43;;
239;SDS011;104;53.590;10.004;2022-12-18T13:02:20;54.90;;;18.93;;
239;SDS011;104;53.590;10.004;2022-12-18T13:04:49;57.57;;;20.80;;
239;SDS011;104;53.590;10.004;2022-12-18T13:07:23;55.83;;;20.50;;
239;SDS011;104;53.590;10.004;2022-12-18T13:10:22;60.50;;;21.37;;
239;SDS011;104;53.590;10.004;2022-12-18T13:12:55;63.40;;;20.87;;
239;SDS011;104;53.590;10.004;2022-12-18T13:15:22;52.23;;;20.40;;
239;SDS011;104;53.590;10.004;2022-12-18T13:18:04;55.53;;;21.60;;
239;SDS011;104;53.590;10.004;2022-12-18T13:20:45;58.60;;;20.10;;
239;SDS011;104;53.590;10.004;2022-12-18T13:23:25;63.60;;;22.50;;
239;SDS011;104;53.590;10.004;2022-12-18T13:29:02;57.97;;;21.90;;
239;SDS011;104;53.590;10.004;2022-12-18T13:34:29;65.80;;;23.97;;
239;SDS011;104;53.590;10.004;2022-12-18T13:37:33;77.53;;;22.53;;
239;SDS011;104;53.590;10.004;2022-12-18T13:43:04;83.93;;;25.50;;
239;SDS011;104;53.590;10.004;2022-12-18T13:45:50;62.47;;;23.37;;
239;SDS011;104;53.590;10.004;2022-12-18T13:48:27;68.33;;;23.33;;
239;SDS011;104;53.590;10.004;2022-12-18T13:51:00;69.20;;;22.57;;
239;SDS011;104;53.590;10.004;2022-12-18T13:53:30;64.30;;;22.90;;
239;SDS011;104;53.590;10.004;2022-12-18T13:56:02;74.50;;;24.37;;
239;SDS011;104;53.590;10.004;2022-12-18T13:58:30;71.03;;;23.50;;
239;SDS011;104;53.590;10.004;2022-12-18T14:00:58;77.93;;;24.70;;
239;SDS011;104;53.590;10.004;2022-12-18T14:03:28;73.83;;;25.10;;
239;SDS011;104;53.590;10.004;2022-12-18T14:05:56;65.10;;;23.60;;
239;SDS011;104;53.590;10.004;2022-12-18T14:08:30;60.13;;;22.30;;
239;SDS011;104;53.590;10.004;2022-12-18T14:11:01;67.70;;;23.83;;
239;SDS011;104;53.590;10.004;2022-12-18T14:13:32;69.87;;;24.57;;
239;SDS011;104;53.590;10.004;2022-12-18T14:16:02;72.37;;;24.50;;
239;SDS011;104;53.590;10.004;2022-12-18T14:18:33;74.23;;;23.27;;
239;SDS011;104;53.590;10.004;2022-12-18T14:21:13;71.67;;;23.77;;
239;SDS011;104;53.590;10.004;2022-12-18T14:23:48;65.13;;;23.00;;
239;SDS011;104;53.590;10.004;2022-12-18T14:26:23;81.67;;;25.43;;
239;SDS011;104;53.590;10.004;2022-12-18T14:28:53;65.00;;;22.33;;
239;SDS011;104;53.590;10.004;2022-12-18T14:31:21;68.93;;;23.97;;
239;SDS011;104;53.590;10.004;2022-12-18T14:33:50;67.00;;;23.30;;
239;SDS011;104;53.590;10.004;2022-12-18T14:36:19;73.07;;;24.97;;
239;SDS011;104;53.590;10.004;2022-12-18T14:38:49;85.57;;;23.10;;
239;SDS011;104;53.590;10.004;2022-12-18T14:41:18;68.93;;;22.93;;
239;SDS011;104;53.590;10.004;2022-12-18T14:43:47;65.03;;;22.37;;
239;SDS011;104;53.590;10.004;2022-12-18T14:46:26;66.93;;;23.17;;
239;SDS011;104;53.590;10.004;2022-12-18T14:48:55;64.87;;;23.47;;
239;SDS011;104;53.590;10.004;2022-12-18T14:51:24;68.07;;;22.63;;
239;SDS011;104;53.590;10.004;2022-12-18T14:53:53;72.53;;;24.30;;
239;SDS011;104;53.590;10.004;2022-12-18T14:56:22;68.10;;;25.10;;
239;SDS011;104;53.590;10.004;2022-12-18T14:58:51;64.47;;;23.27;;
239;SDS011;104;53.590;10.004;2022-12-18T15:01:21;65.53;;;25.00;;
239;SDS011;104;53.590;10.004;2022-12-18T15:03:49;67.83;;;23.27;;
239;SDS011;104;53.590;10.004;2022-12-18T15:06:21;71.17;;;23.60;;
239;SDS011;104;53.590;10.004;2022-12-18T15:08:55;68.80;;;22.37;;
239;SDS011;104;53.590;10.004;2022-12-18T15:11:25;63.43;;;21.80;;
239;SDS011;104;53.590;10.004;2022-12-18T15:13:54;65.23;;;22.20;;
239;SDS011;104;53.590;10.004;2022-12-18T15:16:21;63.43;;;21.20;;
239;SDS011;104;53.590;10.004;2022-12-18T15:18:49;75.60;;;23.03;;
239;SDS011;104;53.590;10.004;2022-12-18T15:21:16;56.97;;;22.13;;
239;SDS011;104;53.590;10.004;2022-12-18T15:23:47;59.20;;;21.93;;
239;SDS011;104;53.590;10.004;2022-12-18T15:26:17;65.30;;;23.17;;
239;SDS011;104;53.590;10.004;2022-12-18T15:28:45;68.23;;;23.57;;
239;SDS011;104;53.590;10.004;2022-12-18T15:36:45;69.03;;;23.60;;
239;SDS011;104;53.590;10.004;2022-12-18T15:39:14;77.47;;;23.77;;